createdAt,value
2019-01-30T00:01:59.728Z,98397.58
2019-01-30T00:04:29.398Z,98379.60
2019-01-30T00:06:59.080Z,98384.83
2019-01-30T00:09:28.737Z,98379.19
2019-01-30T00:11:58.385Z,98374.09
2019-01-30T00:14:28.035Z,98367.12
2019-01-30T00:16:57.726Z,98371.02
2019-01-30T00:19:27.369Z,98371.36
2019-01-30T00:21:57.029Z,98369.63
2019-01-30T00:24:26.713Z,98360.35
2019-01-30T00:26:56.436Z,98357.81
2019-01-30T00:29:26.017Z,98357.19
2019-01-30T00:31:55.678Z,98347.52
2019-01-30T00:34:25.536Z,98343.70
2019-01-30T00:36:55.197Z,98339.83
2019-01-30T00:39:24.869Z,98338.63
2019-01-30T00:41:54.507Z,98328.88
2019-01-30T00:44:24.176Z,98326.73
2019-01-30T00:46:53.824Z,98324.61
2019-01-30T00:49:23.356Z,98319.49
2019-01-30T00:51:53.019Z,98314.13
2019-01-30T00:54:31.861Z,98314.59
2019-01-30T00:56:53.973Z,98312.70
2019-01-30T00:59:23.589Z,98306.52
2019-01-30T01:01:53.157Z,98306.77
2019-01-30T01:04:23.138Z,98298.05
2019-01-30T01:06:52.869Z,98296.30
2019-01-30T01:09:22.572Z,98288.54
2019-01-30T01:11:52.219Z,98279.13
2019-01-30T01:14:21.859Z,98277.95
2019-01-30T01:16:51.393Z,98279.28
2019-01-30T01:19:20.818Z,98268.19
2019-01-30T01:21:50.427Z,98265.00
2019-01-30T01:24:19.919Z,98267.38
2019-01-30T01:26:49.633Z,98264.28
2019-01-30T01:29:19.338Z,98257.83
2019-01-30T01:31:48.965Z,98249.63
2019-01-30T01:34:18.643Z,98257.95
2019-01-30T01:36:48.204Z,98249.64
2019-01-30T01:39:17.868Z,98250.58
2019-01-30T01:41:47.581Z,98243.80
2019-01-30T01:44:17.303Z,98230.36
2019-01-30T01:46:47.037Z,98230.94
2019-01-30T01:49:16.786Z,98227.16
2019-01-30T01:51:46.450Z,98225.95
2019-01-30T01:54:16.196Z,98228.09
2019-01-30T01:56:45.883Z,98228.34
2019-01-30T01:59:15.626Z,98225.32
2019-01-30T02:01:45.297Z,98222.94
2019-01-30T02:04:14.949Z,98218.58
2019-01-30T02:06:44.598Z,98205.73
2019-01-30T02:09:14.085Z,98195.01
2019-01-30T02:11:43.933Z,98189.59
2019-01-30T02:14:13.619Z,98185.86
2019-01-30T02:16:43.301Z,98183.95
2019-01-30T02:19:12.980Z,98176.58
2019-01-30T02:21:42.717Z,98176.36
2019-01-30T02:24:12.508Z,98163.64
2019-01-30T02:26:42.125Z,98158.39
2019-01-30T02:29:11.795Z,98151.41
2019-01-30T02:31:41.477Z,98136.77
2019-01-30T02:34:11.095Z,98124.73
2019-01-30T02:36:59.414Z,98113.50
2019-01-30T02:39:30.108Z,98112.19
2019-01-30T02:41:59.747Z,98118.53
2019-01-30T02:44:29.326Z,98119.91
2019-01-30T02:46:58.963Z,98110.50
2019-01-30T02:49:28.723Z,98100.01
2019-01-30T02:51:58.377Z,98105.50
2019-01-30T02:54:28.151Z,98094.34
2019-01-30T02:56:57.900Z,98084.58
2019-01-30T02:59:27.468Z,98082.44
2019-01-30T03:02:11.075Z,98081.97
2019-01-30T03:04:40.711Z,98079.55
2019-01-30T03:07:10.369Z,98068.80
2019-01-30T03:09:40.021Z,98073.84
2019-01-30T03:12:09.684Z,98071.00
2019-01-30T03:14:39.357Z,98076.73
2019-01-30T03:17:08.998Z,98076.38
2019-01-30T03:19:38.662Z,98071.98
2019-01-30T03:22:08.305Z,98067.20
2019-01-30T03:24:37.860Z,98061.59
2019-01-30T03:27:07.540Z,98066.38
2019-01-30T03:29:37.225Z,98058.05
2019-01-30T03:32:06.845Z,98055.17
2019-01-30T03:34:36.517Z,98059.07
2019-01-30T03:37:06.151Z,98055.17
2019-01-30T03:39:35.726Z,98059.58
2019-01-30T03:42:05.507Z,98054.69
2019-01-30T03:44:35.146Z,98050.48
2019-01-30T03:47:04.787Z,98052.08
2019-01-30T03:49:34.540Z,98045.25
2019-01-30T03:52:04.195Z,98050.00
2019-01-30T03:54:33.787Z,98037.39
2019-01-30T03:57:03.445Z,98039.14
2019-01-30T03:59:33.105Z,98029.11
2019-01-30T04:02:02.766Z,98030.90
2019-01-30T04:04:32.412Z,98036.70
2019-01-30T04:07:02.005Z,98039.98
2019-01-30T04:09:31.795Z,98040.55
2019-01-30T04:12:01.345Z,98046.88
2019-01-30T04:14:31.001Z,98039.77
2019-01-30T04:17:00.547Z,98043.16
2019-01-30T04:19:30.218Z,98043.52
2019-01-30T04:21:59.879Z,98033.91
2019-01-30T04:24:29.548Z,98032.47
2019-01-30T04:26:59.105Z,98032.60
2019-01-30T04:29:28.755Z,98030.34
2019-01-30T04:31:58.513Z,98021.08
2019-01-30T04:34:28.174Z,98027.58
2019-01-30T04:36:57.841Z,98018.55
2019-01-30T04:39:27.278Z,98023.09
2019-01-30T04:41:56.842Z,98022.83
2019-01-30T04:44:26.540Z,98023.09
2019-01-30T04:46:56.163Z,98021.59
2019-01-30T04:49:25.717Z,98023.27
2019-01-30T04:51:55.276Z,98023.75
2019-01-30T04:54:25.034Z,98023.09
2019-01-30T04:56:54.590Z,98023.66
2019-01-30T04:59:24.261Z,98019.47
2019-01-30T05:01:53.881Z,98016.63
2019-01-30T05:04:23.594Z,98014.41
2019-01-30T05:06:53.229Z,98012.19
2019-01-30T05:09:22.881Z,98013.24
2019-01-30T05:11:52.553Z,98015.61
2019-01-30T05:14:22.194Z,98011.42
2019-01-30T05:16:51.771Z,98002.80
2019-01-30T05:19:21.415Z,97997.00
2019-01-30T05:21:50.977Z,98002.78
2019-01-30T05:24:20.673Z,98001.17
2019-01-30T05:26:50.298Z,98004.72
2019-01-30T05:29:19.959Z,97997.92
2019-01-30T05:32:00.646Z,97998.78
2019-01-30T05:34:20.912Z,97995.89
2019-01-30T05:36:50.429Z,97989.59
2019-01-30T05:39:20.224Z,97989.81
2019-01-30T05:41:50.428Z,97983.08
2019-01-30T05:44:20.041Z,97973.71
2019-01-30T05:46:49.718Z,97972.57
2019-01-30T05:49:19.373Z,97973.39
2019-01-30T05:51:48.892Z,97969.08
2019-01-30T05:54:18.643Z,97957.26
2019-01-30T05:56:48.250Z,97958.56
2019-01-30T05:59:17.902Z,97950.72
2019-01-30T06:01:47.570Z,97954.91
2019-01-30T06:04:17.334Z,97942.78
2019-01-30T06:06:46.882Z,97945.97
2019-01-30T06:09:16.539Z,97944.14
2019-01-30T06:11:46.098Z,97946.22
2019-01-30T06:14:15.737Z,97943.14
2019-01-30T06:16:45.292Z,97943.70
2019-01-30T06:19:16.435Z,97951.90
2019-01-30T06:21:49.013Z,97950.05
2019-01-30T06:24:18.793Z,97950.23
2019-01-30T06:26:48.372Z,97946.44
2019-01-30T06:29:18.968Z,97946.55
2019-01-30T06:31:51.129Z,97940.36
2019-01-30T06:34:22.888Z,97936.16
2019-01-30T06:36:52.910Z,97938.77
2019-01-30T06:39:23.130Z,97945.17
2019-01-30T06:41:53.660Z,97940.10
2019-01-30T06:44:23.589Z,97939.16
2019-01-30T06:46:53.220Z,97934.87
2019-01-30T06:49:22.868Z,97931.31
2019-01-30T06:51:52.508Z,97930.71
2019-01-30T06:54:22.130Z,97928.70
2019-01-30T06:56:52.189Z,97934.77
2019-01-30T06:59:22.561Z,97928.24
2019-01-30T07:01:52.571Z,97939.51
2019-01-30T07:04:23.008Z,97934.17
2019-01-30T07:06:54.343Z,97940.91
2019-01-30T07:09:24.131Z,97934.87
2019-01-30T07:11:53.890Z,97928.23
2019-01-30T07:14:23.771Z,97923.14
2019-01-30T07:16:53.684Z,97922.77
2019-01-30T07:19:23.322Z,97929.33
2019-01-30T07:21:52.983Z,97930.95
2019-01-30T07:24:22.640Z,97925.97
2019-01-30T07:26:52.300Z,97921.09
2019-01-30T07:29:21.953Z,97924.50
2019-01-30T07:31:51.602Z,97914.72
2019-01-30T07:34:21.201Z,97922.31
2019-01-30T07:36:50.748Z,97922.38
2019-01-30T07:39:20.403Z,97923.62
2019-01-30T07:41:50.077Z,97918.96
2019-01-30T07:44:19.527Z,97923.52
2019-01-30T07:46:49.731Z,97925.14
2019-01-30T07:49:19.450Z,97931.36
2019-01-30T07:51:49.119Z,97925.59
2019-01-30T07:54:18.871Z,97928.30
2019-01-30T07:56:48.510Z,97933.76
2019-01-30T07:59:18.096Z,97930.70
2019-01-30T08:01:47.916Z,97922.51
2019-01-30T08:04:17.590Z,97918.76
2019-01-30T08:07:08.177Z,97928.44
2019-01-30T08:09:37.810Z,97924.56
2019-01-30T08:12:07.536Z,97930.34
2019-01-30T08:14:37.126Z,97924.12
2019-01-30T08:17:06.778Z,97933.91
2019-01-30T08:19:36.441Z,97936.15
2019-01-30T08:22:06.218Z,97935.80
2019-01-30T08:24:35.994Z,97937.14
2019-01-30T08:27:05.815Z,97932.58
2019-01-30T08:29:35.923Z,97934.55
2019-01-30T08:32:05.752Z,97936.02
2019-01-30T08:34:35.366Z,97937.21
2019-01-30T08:37:05.184Z,97934.38
2019-01-30T08:39:34.818Z,97938.88
2019-01-30T08:42:04.497Z,97943.73
2019-01-30T08:44:34.231Z,97943.09
2019-01-30T08:47:03.919Z,97949.32
2019-01-30T08:49:33.340Z,97943.93
2019-01-30T08:52:02.849Z,97947.05
2019-01-30T08:54:32.558Z,97948.36
2019-01-30T08:57:02.068Z,97948.02
2019-01-30T08:59:31.802Z,97953.55
2019-01-30T09:02:01.390Z,97950.50
2019-01-30T09:04:31.047Z,97947.75
2019-01-30T09:07:00.683Z,97951.20
2019-01-30T09:09:30.339Z,97949.73
2019-01-30T09:12:00.024Z,97947.84
2019-01-30T09:14:29.677Z,97948.02
2019-01-30T09:16:59.414Z,97948.97
2019-01-30T09:19:28.950Z,97943.70
2019-01-30T09:21:58.645Z,97947.49
2019-01-30T09:24:28.301Z,97945.62
2019-01-30T09:26:57.942Z,97949.19
2019-01-30T09:29:27.421Z,97945.58
2019-01-30T09:31:57.002Z,97943.13
2019-01-30T09:34:26.488Z,97935.25
2019-01-30T09:36:56.354Z,97937.11
2019-01-30T09:39:26.295Z,97934.14
2019-01-30T09:41:55.879Z,97928.19
2019-01-30T09:44:25.531Z,97923.42
2019-01-30T09:46:55.172Z,97927.52
2019-01-30T09:49:24.924Z,97932.28
2019-01-30T09:51:54.631Z,97924.91
2019-01-30T09:54:24.480Z,97934.63
2019-01-30T09:56:54.166Z,97932.50
2019-01-30T09:59:23.761Z,97942.35
2019-01-30T10:01:53.355Z,97941.18
2019-01-30T10:04:25.370Z,97935.20
2019-01-30T10:06:54.702Z,97937.91
2019-01-30T10:09:24.126Z,97934.85
2019-01-30T10:11:53.471Z,97934.63
2019-01-30T10:14:22.872Z,97945.31
2019-01-30T10:16:52.265Z,97944.92
2019-01-30T10:19:21.703Z,97945.07
2019-01-30T10:21:51.199Z,97950.02
2019-01-30T10:24:20.593Z,97949.00
2019-01-30T10:26:50.050Z,97945.77
2019-01-30T10:29:19.508Z,97945.71
2019-01-30T10:31:48.943Z,97953.30
2019-01-30T10:34:18.503Z,97947.88
2019-01-30T10:36:47.867Z,97946.93
2019-01-30T10:39:17.281Z,97940.37
2019-01-30T10:41:46.604Z,97944.93
2019-01-30T10:44:16.032Z,97940.12
2019-01-30T10:46:45.427Z,97946.10
2019-01-30T10:49:15.233Z,97949.00
2019-01-30T10:51:44.884Z,97944.66
2019-01-30T10:54:14.560Z,97944.58
2019-01-30T10:56:44.168Z,97939.58
2019-01-30T10:59:13.890Z,97936.75
2019-01-30T11:01:43.610Z,97925.84
2019-01-30T11:04:13.290Z,97927.23
2019-01-30T11:06:42.941Z,97927.80
2019-01-30T11:09:12.883Z,97927.98
2019-01-30T11:11:42.446Z,97934.02
2019-01-30T11:14:12.109Z,97922.40
2019-01-30T11:16:41.561Z,97931.23
2019-01-30T11:19:11.331Z,97921.91
2019-01-30T11:21:41.026Z,97919.28
2019-01-30T11:24:10.630Z,97920.53
2019-01-30T11:26:40.213Z,97922.41
2019-01-30T11:29:09.847Z,97918.19
2019-01-30T11:31:39.409Z,97923.37
2019-01-30T11:34:09.164Z,97916.73
2019-01-30T11:36:38.958Z,97917.64
2019-01-30T11:39:09.106Z,97914.59
2019-01-30T11:41:38.762Z,97906.77
2019-01-30T11:44:08.370Z,97916.59
2019-01-30T11:46:38.146Z,97907.45
2019-01-30T11:49:07.830Z,97897.23
2019-01-30T11:51:37.440Z,97901.52
2019-01-30T11:54:06.862Z,97903.93
2019-01-30T11:56:36.261Z,97896.56
2019-01-30T11:59:05.608Z,97900.06
2019-01-30T12:01:35.027Z,97898.75
2019-01-30T12:04:04.357Z,97895.20
2019-01-30T12:06:33.834Z,97890.92
2019-01-30T12:09:04.834Z,97889.37
2019-01-30T12:11:34.514Z,97886.62
2019-01-30T12:14:03.845Z,97884.69
2019-01-30T12:16:33.890Z,97882.95
2019-01-30T12:19:03.280Z,97882.36
2019-01-30T12:21:32.895Z,97884.70
2019-01-30T12:24:02.582Z,97892.05
2019-01-30T12:26:32.280Z,97890.69
2019-01-30T12:29:01.682Z,97899.07
2019-01-30T12:31:31.059Z,97897.41
2019-01-30T12:34:00.389Z,97897.32
2019-01-30T12:36:29.860Z,97898.94
2019-01-30T12:38:59.186Z,97894.91
2019-01-30T12:41:28.813Z,97897.34
2019-01-30T12:43:58.169Z,97896.27
2019-01-30T12:46:27.609Z,97900.13
2019-01-30T12:48:57.028Z,97904.13
2019-01-30T12:51:26.432Z,97901.70
2019-01-30T12:53:55.818Z,97903.05
2019-01-30T12:56:25.192Z,97906.36
2019-01-30T12:58:54.523Z,97906.16
2019-01-30T13:01:23.960Z,97907.63
2019-01-30T13:03:53.371Z,97907.63
2019-01-30T13:06:22.754Z,97910.91
2019-01-30T13:08:52.302Z,97909.84
2019-01-30T13:11:21.715Z,97919.02
2019-01-30T13:13:51.054Z,97902.96
2019-01-30T13:16:20.559Z,97919.28
2019-01-30T13:18:50.190Z,97919.22
2019-01-30T13:21:19.592Z,97923.38
2019-01-30T13:23:48.937Z,97919.33
2019-01-30T13:26:18.330Z,97920.80
2019-01-30T13:28:47.702Z,97929.25
2019-01-30T13:31:17.086Z,97924.20
2019-01-30T13:33:46.546Z,97923.59
2019-01-30T13:36:15.920Z,97927.47
2019-01-30T13:38:45.269Z,97927.34
2019-01-30T13:41:14.979Z,97929.66
2019-01-30T13:43:44.550Z,97936.84
2019-01-30T13:46:14.082Z,97948.62
2019-01-30T13:48:43.523Z,97941.86
2019-01-30T13:51:13.025Z,97945.59
2019-01-30T13:53:42.413Z,97948.08
2019-01-30T13:56:12.954Z,97950.14
2019-01-30T13:58:42.857Z,97959.83
2019-01-30T14:01:17.585Z,97959.41
2019-01-30T14:03:43.481Z,97964.70
2019-01-30T14:06:12.864Z,97968.17
2019-01-30T14:08:43.759Z,97974.91
2019-01-30T14:11:13.401Z,97982.64
2019-01-30T14:13:43.050Z,97983.95
2019-01-30T14:16:12.436Z,97981.81
2019-01-30T14:18:41.888Z,97995.58
2019-01-30T14:21:11.498Z,98002.50
2019-01-30T14:23:41.196Z,98004.80
2019-01-30T14:26:11.047Z,98016.02
2019-01-30T14:28:40.702Z,98017.15
2019-01-30T14:31:10.319Z,98020.55
2019-01-30T14:33:40.016Z,98026.07
2019-01-30T14:36:09.683Z,98040.19
2019-01-30T14:38:39.134Z,98043.28
2019-01-30T14:41:08.565Z,98049.89
2019-01-30T14:43:38.246Z,98058.77
2019-01-30T14:46:07.694Z,98063.58
2019-01-30T14:48:37.063Z,98059.41
2019-01-30T14:51:06.427Z,98065.20
2019-01-30T14:53:35.846Z,98076.56
2019-01-30T14:56:05.261Z,98077.09
2019-01-30T14:58:34.736Z,98081.52
2019-01-30T15:01:04.190Z,98095.78
2019-01-30T15:03:33.908Z,98097.14
2019-01-30T15:06:03.447Z,98100.19
2019-01-30T15:08:32.903Z,98102.83
2019-01-30T15:11:02.688Z,98105.75
2019-01-30T15:13:32.264Z,98112.97
2019-01-30T15:16:01.827Z,98120.84
2019-01-30T15:18:31.513Z,98124.31
2019-01-30T15:21:01.065Z,98123.26
2019-01-30T15:23:30.723Z,98132.63
2019-01-30T15:26:00.311Z,98139.84
2019-01-30T15:28:29.922Z,98140.33
2019-01-30T15:30:59.531Z,98143.39
2019-01-30T15:33:29.093Z,98149.69
2019-01-30T15:35:58.791Z,98151.72
2019-01-30T15:38:28.582Z,98160.72
2019-01-30T15:40:58.357Z,98159.25
2019-01-30T15:43:27.894Z,98165.70
2019-01-30T15:45:57.530Z,98178.56
2019-01-30T15:48:27.222Z,98182.98
2019-01-30T15:50:56.881Z,98187.19
2019-01-30T15:53:27.453Z,98191.14
2019-01-30T15:55:57.033Z,98200.98
2019-01-30T15:58:26.651Z,98206.45
2019-01-30T16:01:06.544Z,98211.89
2019-01-30T16:03:36.210Z,98210.66
2019-01-30T16:06:05.576Z,98211.89
2019-01-30T16:08:35.252Z,98225.54
2019-01-30T16:11:04.893Z,98226.67
2019-01-30T16:13:34.572Z,98235.38
2019-01-30T16:16:05.642Z,98234.90
2019-01-30T16:18:35.281Z,98234.60
2019-01-30T16:21:04.917Z,98239.09
2019-01-30T16:23:34.442Z,98241.67
2019-01-30T16:26:04.142Z,98252.08
2019-01-30T16:28:33.704Z,98257.03
2019-01-30T16:31:03.351Z,98258.77
2019-01-30T16:33:32.971Z,98266.44
2019-01-30T16:36:02.370Z,98271.70
2019-01-30T16:38:32.033Z,98278.92
2019-01-30T16:41:01.674Z,98284.23
2019-01-30T16:43:31.230Z,98293.30
2019-01-30T16:46:00.868Z,98299.38
2019-01-30T16:48:31.025Z,98308.77
2019-01-30T16:51:00.732Z,98312.08
2019-01-30T16:53:30.395Z,98316.84
2019-01-30T16:56:00.030Z,98320.55
2019-01-30T16:58:29.585Z,98324.44
2019-01-30T17:00:59.240Z,98323.48
2019-01-30T17:03:28.683Z,98328.27
2019-01-30T17:06:07.031Z,98335.02
2019-01-30T17:08:30.630Z,98335.84
2019-01-30T17:11:00.243Z,98341.70
2019-01-30T17:13:29.821Z,98340.23
2019-01-30T17:15:59.587Z,98338.98
2019-01-30T17:18:29.339Z,98343.38
2019-01-30T17:20:58.965Z,98349.13
2019-01-30T17:23:28.550Z,98351.61
2019-01-30T17:25:58.099Z,98356.80
2019-01-30T17:28:27.672Z,98356.88
2019-01-30T17:31:00.788Z,98356.94
2019-01-30T17:33:30.324Z,98362.87
2019-01-30T17:36:00.112Z,98367.47
2019-01-30T17:38:30.812Z,98368.80
2019-01-30T17:41:00.481Z,98375.47
2019-01-30T17:43:30.089Z,98383.16
2019-01-30T17:45:59.782Z,98384.89
2019-01-30T17:48:29.592Z,98388.60
2019-01-30T17:50:59.222Z,98389.99
2019-01-30T17:53:28.890Z,98400.63
2019-01-30T17:55:58.523Z,98398.63
2019-01-30T17:58:28.753Z,98397.68
2019-01-30T18:01:09.120Z,98404.53
2019-01-30T18:03:38.668Z,98408.83
2019-01-30T18:06:08.307Z,98401.03
2019-01-30T18:08:37.978Z,98406.98
2019-01-30T18:11:07.597Z,98404.28
2019-01-30T18:13:37.370Z,98413.97
2019-01-30T18:16:06.955Z,98416.48
2019-01-30T18:18:36.902Z,98417.19
2019-01-30T18:21:06.310Z,98424.46
2019-01-30T18:23:35.998Z,98418.14
2019-01-30T18:26:05.632Z,98429.59
2019-01-30T18:28:35.298Z,98427.17
2019-01-30T18:31:04.922Z,98430.08
2019-01-30T18:33:34.603Z,98428.61
2019-01-30T18:36:04.198Z,98434.69
2019-01-30T18:38:35.873Z,98438.37
2019-01-30T18:41:04.759Z,98442.20
2019-01-30T18:43:34.213Z,98440.91
2019-01-30T18:46:03.633Z,98443.52
2019-01-30T18:48:33.292Z,98435.56
2019-01-30T18:51:02.623Z,98440.72
2019-01-30T18:53:31.998Z,98443.87
2019-01-30T18:56:01.346Z,98442.48
2019-01-30T18:58:30.750Z,98445.20
2019-01-30T19:01:00.088Z,98448.68
2019-01-30T19:03:29.616Z,98448.13
2019-01-30T19:05:58.997Z,98454.25
2019-01-30T19:08:31.238Z,98455.08
2019-01-30T19:11:00.622Z,98448.02
2019-01-30T19:13:30.140Z,98454.81
2019-01-30T19:15:59.544Z,98456.95
2019-01-30T19:18:28.923Z,98463.36
2019-01-30T19:20:58.312Z,98460.36
2019-01-30T19:23:27.687Z,98467.52
2019-01-30T19:25:57.015Z,98465.72
2019-01-30T19:28:26.413Z,98467.13
2019-01-30T19:30:55.763Z,98474.59
2019-01-30T19:33:25.142Z,98478.95
2019-01-30T19:35:54.478Z,98483.07
2019-01-30T19:38:24.074Z,98479.78
2019-01-30T19:40:53.639Z,98486.15
2019-01-30T19:43:23.311Z,98489.74
2019-01-30T19:45:52.882Z,98488.70
2019-01-30T19:48:22.577Z,98493.96
2019-01-30T19:50:52.158Z,98504.21
2019-01-30T19:53:21.819Z,98502.73
2019-01-30T19:55:51.352Z,98504.90
2019-01-30T19:58:20.913Z,98514.95
2019-01-30T20:00:50.632Z,98520.13
2019-01-30T20:03:22.361Z,98521.48
2019-01-30T20:05:52.146Z,98521.30
2019-01-30T20:08:21.566Z,98525.70
2019-01-30T20:10:51.223Z,98522.16
2019-01-30T20:13:20.809Z,98527.84
2019-01-30T20:15:50.467Z,98528.40
2019-01-30T20:18:19.921Z,98526.27
2019-01-30T20:20:49.570Z,98537.63
2019-01-30T20:23:19.755Z,98534.80
2019-01-30T20:25:49.410Z,98539.71
2019-01-30T20:28:19.059Z,98532.73
2019-01-30T20:30:48.622Z,98534.09
2019-01-30T20:33:18.081Z,98540.77
2019-01-30T20:35:47.738Z,98538.33
2019-01-30T20:38:17.374Z,98537.44
2019-01-30T20:40:47.191Z,98536.58
2019-01-30T20:43:16.799Z,98547.11
2019-01-30T20:45:46.472Z,98543.58
2019-01-30T20:48:16.077Z,98557.25
2019-01-30T20:50:45.751Z,98553.70
2019-01-30T20:53:15.351Z,98555.34
2019-01-30T20:55:44.909Z,98561.44
2019-01-30T20:58:14.374Z,98558.95
2019-01-30T21:00:44.017Z,98563.94
2019-01-30T21:03:13.738Z,98570.86
2019-01-30T21:05:45.018Z,98570.59
2019-01-30T21:08:14.870Z,98580.25
2019-01-30T21:10:44.467Z,98582.03
2019-01-30T21:13:14.063Z,98585.40
2019-01-30T21:15:43.822Z,98587.62
2019-01-30T21:18:13.379Z,98594.23
2019-01-30T21:20:43.098Z,98595.05
2019-01-30T21:23:12.692Z,98594.80
2019-01-30T21:25:42.410Z,98600.48
2019-01-30T21:28:12.019Z,98602.15
2019-01-30T21:30:41.608Z,98601.69
2019-01-30T21:33:11.290Z,98603.22
2019-01-30T21:35:40.955Z,98598.13
2019-01-30T21:38:10.498Z,98607.38
2019-01-30T21:40:40.121Z,98613.86
2019-01-30T21:43:09.798Z,98607.41
2019-01-30T21:45:39.368Z,98616.13
2019-01-30T21:48:09.138Z,98612.77
2019-01-30T21:50:38.708Z,98608.59
2019-01-30T21:53:08.365Z,98618.02
2019-01-30T21:55:37.909Z,98614.70
2019-01-30T21:58:07.477Z,98621.13
2019-01-30T22:00:37.081Z,98619.55
2019-01-30T22:03:06.678Z,98616.72
2019-01-30T22:05:36.333Z,98616.83
2019-01-30T22:08:05.998Z,98618.87
2019-01-30T22:10:35.650Z,98618.92
2019-01-30T22:13:05.510Z,98621.81
2019-01-30T22:15:35.099Z,98616.53
2019-01-30T22:18:04.739Z,98615.30
2019-01-30T22:20:34.293Z,98619.56
2019-01-30T22:23:04.184Z,98624.13
2019-01-30T22:25:33.745Z,98615.14
2019-01-30T22:28:03.477Z,98614.83
2019-01-30T22:30:36.535Z,98608.48
2019-01-30T22:33:06.053Z,98610.27
2019-01-30T22:35:35.630Z,98615.94
2019-01-30T22:38:12.542Z,98610.47
2019-01-30T22:40:36.780Z,98614.91
2019-01-30T22:43:06.581Z,98616.86
2019-01-30T22:45:36.239Z,98613.78
2019-01-30T22:48:06.249Z,98610.89
2019-01-30T22:50:35.927Z,98613.13
2019-01-30T22:53:05.680Z,98618.48
2019-01-30T22:55:35.259Z,98612.86
2019-01-30T22:58:04.926Z,98613.34
2019-01-30T23:01:18.260Z,98616.27
2019-01-30T23:04:15.316Z,98620.83
2019-01-30T23:07:06.466Z,98615.30
2019-01-30T23:09:55.251Z,98620.43
2019-01-30T23:13:05.550Z,98623.63
2019-01-30T23:15:44.996Z,98622.75
2019-01-30T23:18:56.782Z,98617.86
2019-01-30T23:21:30.910Z,98621.66
2019-01-30T23:24:59.788Z,98622.45
2019-01-30T23:27:44.069Z,98618.26
2019-01-30T23:30:42.093Z,98613.83
2019-01-30T23:33:34.878Z,98611.20
2019-01-30T23:36:41.960Z,98600.11
2019-01-30T23:39:48.321Z,98598.09
2019-01-30T23:42:44.579Z,98597.05
2019-01-30T23:46:06.907Z,98587.67
2019-01-30T23:49:20.137Z,98595.39
2019-01-30T23:52:37.566Z,98599.53
2019-01-30T23:55:29.204Z,98597.52
2019-01-30T23:58:39.342Z,98597.52
